Check out our new BloomSky Weather System.

Active alerts


No alerts


Thunder radar  blitzortung!


Rain radar more information rain snow radar


Visit our other weather sites:

Template documentation
and downloads

And another site



Weather Underground History page Text

Daily Summary for March 26, 2017 Units:  English    Metric   Both
« Previous Day
Next Day »
Daily Weekly Monthly Yearly Custom
  High: Low: Average:
Temperature: 86.0 °F 57.6 °F 72.1 °F
Dew Point: 70.2 °F 54.7 °F 64.6 °F
Humidity: 98 % 45 % 79 %
Wind Speed: 15.0 mph 0.0 mph 3.9 mph
Wind Gust: 25.0 mph - -
Wind:- - SSE
Pressure: 29.93 in 29.81 in -
Precipitation: 0.00 in    
Historical Graphs
 
 
Tabular Data for March 26, 2017
Time Temperature Dew Point Pressure Wind Wind Speed Wind Gust Humidity Rainfall Rate (Hourly)
00:02 60.3 °F 56.7 °F 29.92 in Calm   1.0 mph 88 % 0.00 in
00:07 60.1 °F 56.5 °F 29.92 in Calm   1.0 mph 88 % 0.00 in
00:12 60.1 °F 56.5 °F 29.91 in Calm   1.0 mph 88 % 0.00 in
00:17 59.7 °F 55.8 °F 29.92 in Calm     87 % 0.00 in
00:22 59.7 °F 56.1 °F 29.92 in Calm     88 % 0.00 in
00:27 59.5 °F 55.9 °F 29.91 in Calm     88 % 0.00 in
00:32 59.4 °F 55.8 °F 29.92 in Calm     88 % 0.00 in
00:37 59.2 °F 55.6 °F 29.91 in Calm     88 % 0.00 in
00:42 59.0 °F 55.4 °F 29.91 in Calm     88 % 0.00 in
00:47 59.0 °F 55.8 °F 29.91 in Calm     89 % 0.00 in
00:52 59.0 °F 55.8 °F 29.91 in Calm     89 % 0.00 in
00:57 58.6 °F 55.4 °F 29.91 in Calm     89 % 0.00 in
01:02 58.8 °F 55.9 °F 29.91 in Calm   1.0 mph 90 % 0.00 in
01:07 58.8 °F 55.9 °F 29.91 in Calm   1.0 mph 90 % 0.00 in
01:12 59.0 °F 56.1 °F 29.91 in Calm   1.0 mph 90 % 0.00 in
01:17 58.8 °F 55.9 °F 29.91 in Calm   1.0 mph 90 % 0.00 in
01:22 58.8 °F 55.9 °F 29.91 in Calm     90 % 0.00 in
01:27 58.8 °F 55.6 °F 29.91 in Calm     89 % 0.00 in
01:33 58.6 °F 55.4 °F 29.91 in Calm     89 % 0.00 in
01:38 58.5 °F 55.2 °F 29.91 in Calm     89 % 0.00 in
01:43 58.3 °F 55.4 °F 29.91 in Calm     90 % 0.00 in
01:48 58.1 °F 55.2 °F 29.91 in Calm     90 % 0.00 in
01:53 57.9 °F 55.0 °F 29.91 in Calm     90 % 0.00 in
01:58 57.6 °F 54.7 °F 29.91 in Calm     90 % 0.00 in
02:03 57.7 °F 55.2 °F 29.91 in Calm     91 % 0.00 in
02:08 57.9 °F 55.2 °F 29.91 in Calm   1.0 mph 91 % 0.00 in
02:13 57.7 °F 54.9 °F 29.91 in Calm   1.0 mph 90 % 0.00 in
02:18 57.6 °F 54.7 °F 29.91 in Calm   1.0 mph 90 % 0.00 in
02:23 57.6 °F 55.0 °F 29.92 in Calm     91 % 0.00 in
02:28 57.6 °F 55.2 °F 29.92 in Calm     92 % 0.00 in
02:33 57.7 °F 55.4 °F 29.91 in Calm     92 % 0.00 in
02:38 57.9 °F 55.6 °F 29.91 in Calm     92 % 0.00 in
02:43 58.5 °F 56.1 °F 29.91 in Calm     92 % 0.00 in
02:48 58.6 °F 56.3 °F 29.91 in Calm     92 % 0.00 in
02:49 58.6 °F 56.3 °F 29.91 in Calm     92 % 0.00 in
02:54 59.2 °F 56.8 °F 29.91 in Calm     92 % 0.00 in
02:59 59.5 °F 57.2 °F 29.91 in Calm     92 % 0.00 in
03:04 60.1 °F 57.7 °F 29.91 in Calm     92 % 0.00 in
03:09 60.3 °F 57.9 °F 29.91 in Calm     92 % 0.00 in
03:14 60.6 °F 58.3 °F 29.90 in Calm     92 % 0.00 in
03:19 61.0 °F 58.6 °F 29.90 in Calm     92 % 0.00 in
03:24 61.3 °F 59.0 °F 29.90 in Calm   1.0 mph 92 % 0.00 in
03:29 61.5 °F 59.2 °F 29.90 in Calm   1.0 mph 92 % 0.00 in
03:34 61.9 °F 59.5 °F 29.89 in Calm   1.0 mph 92 % 0.00 in
03:39 62.1 °F 59.7 °F 29.89 in Calm     92 % 0.00 in
03:44 62.2 °F 59.9 °F 29.89 in Calm     92 % 0.00 in
03:49 62.4 °F 60.1 °F 29.89 in Calm     92 % 0.00 in
03:54 62.6 °F 60.6 °F 29.89 in Calm     93 % 0.00 in
03:59 62.8 °F 60.8 °F 29.89 in Calm     93 % 0.00 in
04:04 63.0 °F 61.0 °F 29.88 in Calm     93 % 0.00 in
04:09 63.1 °F 61.2 °F 29.88 in Calm     93 % 0.00 in
04:14 63.1 °F 61.2 °F 29.88 in Calm     93 % 0.00 in
04:19 63.3 °F 61.3 °F 29.88 in Calm     93 % 0.00 in
04:25 63.7 °F 61.7 °F 29.88 in Calm     93 % 0.00 in
04:29 63.7 °F 61.7 °F 29.88 in Calm     93 % 0.00 in
04:35 63.7 °F 61.7 °F 29.88 in Calm     93 % 0.00 in
04:40 63.7 °F 61.7 °F 29.88 in Calm     93 % 0.00 in
04:45 63.7 °F 61.7 °F 29.87 in Calm     93 % 0.00 in
04:50 63.5 °F 61.5 °F 29.87 in Calm     93 % 0.00 in
04:55 63.3 °F 61.3 °F 29.88 in Calm     93 % 0.00 in
05:00 63.1 °F 61.2 °F 29.88 in Calm     93 % 0.00 in
05:05 63.1 °F 61.2 °F 29.87 in Calm     93 % 0.00 in
05:10 63.3 °F 61.5 °F 29.88 in Calm     94 % 0.00 in
05:15 63.3 °F 61.5 °F 29.87 in Calm     94 % 0.00 in
05:20 63.1 °F 61.3 °F 29.87 in Calm     94 % 0.00 in
05:25 63.0 °F 61.2 °F 29.88 in Calm     94 % 0.00 in
05:30 62.8 °F 61.0 °F 29.88 in Calm     94 % 0.00 in
05:35 62.8 °F 61.0 °F 29.88 in Calm     94 % 0.00 in
05:40 62.6 °F 60.8 °F 29.88 in Calm     94 % 0.00 in
05:45 62.6 °F 61.2 °F 29.88 in Calm     95 % 0.00 in
05:50 62.8 °F 61.3 °F 29.88 in Calm     95 % 0.00 in
05:55 62.8 °F 61.3 °F 29.88 in Calm     95 % 0.00 in
06:00 62.6 °F 61.2 °F 29.88 in Calm     95 % 0.00 in
06:05 62.8 °F 61.3 °F 29.88 in Calm     95 % 0.00 in
06:10 62.8 °F 61.3 °F 29.88 in Calm     95 % 0.00 in
06:15 62.8 °F 61.3 °F 29.88 in Calm     95 % 0.00 in
06:20 62.6 °F 61.2 °F 29.88 in Calm     95 % 0.00 in
06:25 62.4 °F 61.0 °F 29.88 in Calm     95 % 0.00 in
06:30 62.4 °F 61.0 °F 29.88 in Calm     95 % 0.00 in
06:35 62.2 °F 60.8 °F 29.88 in Calm     95 % 0.00 in
06:40 62.2 °F 60.8 °F 29.88 in Calm     95 % 0.00 in
06:45 62.1 °F 60.6 °F 29.88 in Calm     95 % 0.00 in
06:51 61.9 °F 60.4 °F 29.88 in Calm     95 % 0.00 in
06:56 61.9 °F 60.8 °F 29.88 in Calm     96 % 0.00 in
07:01 61.9 °F 60.4 °F 29.89 in Calm     95 % 0.00 in
07:06 61.7 °F 60.3 °F 29.89 in Calm     95 % 0.00 in
07:08 61.5 °F 60.1 °F 29.89 in Calm     95 % 0.00 in
07:13 62.1 °F 61.2 °F 29.89 in Calm     97 % 0.00 in
07:18 62.6 °F 61.7 °F 29.89 in Calm     97 % 0.00 in
07:24 63.0 °F 62.1 °F 29.89 in Calm     97 % 0.00 in
07:29 63.3 °F 62.4 °F 29.89 in Calm     97 % 0.00 in
07:34 63.7 °F 62.8 °F 29.90 in Calm     97 % 0.00 in
07:39 64.0 °F 63.5 °F 29.90 in Calm     98 % 0.00 in
07:44 64.8 °F 64.2 °F 29.90 in Calm     98 % 0.00 in
07:49 65.1 °F 64.2 °F 29.91 in Calm     97 % 0.00 in
07:54 65.3 °F 64.4 °F 29.91 in Calm     97 % 0.00 in
07:59 65.5 °F 64.6 °F 29.91 in Calm     97 % 0.00 in
08:04 65.8 °F 64.9 °F 29.91 in Calm     97 % 0.00 in
08:09 66.2 °F 65.7 °F 29.91 in Calm     98 % 0.00 in
08:14 66.6 °F 66.0 °F 29.91 in Calm     98 % 0.00 in
08:19 66.9 °F 66.4 °F 29.92 in SSE 2.0 mph 2.0 mph 98 % 0.00 in
08:24 67.3 °F 66.4 °F 29.92 in SSE 1.0 mph 2.0 mph 97 % 0.00 in
08:29 67.5 °F 66.6 °F 29.92 in Calm   3.0 mph 97 % 0.00 in
08:34 67.6 °F 66.7 °F 29.92 in SE 1.0 mph 3.0 mph 97 % 0.00 in
08:39 68.0 °F 67.1 °F 29.92 in Calm   3.0 mph 97 % 0.00 in
08:44 68.4 °F 67.5 °F 29.92 in ESE 1.0 mph 3.0 mph 97 % 0.00 in
08:49 68.5 °F 67.6 °F 29.92 in Calm   3.0 mph 97 % 0.00 in
08:54 68.7 °F 67.8 °F 29.92 in Calm   3.0 mph 97 % 0.00 in
08:59 69.3 °F 68.4 °F 29.93 in SSE 2.0 mph 2.0 mph 97 % 0.00 in
09:04 69.6 °F 68.7 °F 29.93 in SE 2.0 mph 3.0 mph 97 % 0.00 in
09:09 70.2 °F 68.9 °F 29.93 in SE 3.0 mph 3.0 mph 96 % 0.00 in
09:14 70.5 °F 69.3 °F 29.93 in SE 4.0 mph 5.0 mph 96 % 0.00 in
09:19 71.1 °F 69.6 °F 29.93 in SE 3.0 mph 5.0 mph 95 % 0.00 in
09:24 71.2 °F 69.1 °F 29.93 in SE 2.0 mph 5.0 mph 93 % 0.00 in
09:29 71.6 °F 69.4 °F 29.93 in ESE 3.0 mph 6.0 mph 93 % 0.00 in
09:34 72.0 °F 69.4 °F 29.93 in SE 5.0 mph 8.0 mph 92 % 0.00 in
09:44 72.7 °F 69.3 °F 29.93 in SW 4.0 mph 8.0 mph 89 % 0.00 in
09:50 73.0 °F 69.3 °F 29.92 in South 4.0 mph 9.0 mph 88 % 0.00 in
09:55 73.4 °F 69.3 °F 29.93 in ESE 7.0 mph 9.0 mph 87 % 0.00 in
09:59 73.6 °F 69.4 °F 29.93 in ESE 4.0 mph 10.0 mph 87 % 0.00 in
10:05 73.9 °F 69.8 °F 29.93 in SE 2.0 mph 10.0 mph 87 % 0.00 in
10:10 74.7 °F 70.2 °F 29.92 in SE 5.0 mph 10.0 mph 86 % 0.00 in
10:15 75.0 °F 69.4 °F 29.92 in SE 5.0 mph 8.0 mph 83 % 0.00 in
10:20 75.0 °F 69.4 °F 29.92 in SSE 3.0 mph 9.0 mph 83 % 0.00 in
10:25 75.4 °F 69.8 °F 29.92 in SSW 3.0 mph 9.0 mph 83 % 0.00 in
10:30 75.7 °F 69.8 °F 29.93 in SW 2.0 mph 9.0 mph 82 % 0.00 in
10:35 75.7 °F 69.1 °F 29.93 in SSE 6.0 mph 10.0 mph 80 % 0.00 in
10:40 75.7 °F 69.1 °F 29.93 in ESE 6.0 mph 12.0 mph 80 % 0.00 in
10:45 76.3 °F 69.6 °F 29.93 in SSE 4.0 mph 12.0 mph 80 % 0.00 in
10:50 76.6 °F 69.3 °F 29.93 in SE 9.0 mph 13.0 mph 78 % 0.00 in
10:55 77.0 °F 69.3 °F 29.93 in ESE 11.0 mph 14.0 mph 77 % 0.00 in
11:00 77.4 °F 69.3 °F 29.92 in SSE 7.0 mph 14.0 mph 76 % 0.00 in
11:01 77.5 °F 69.4 °F 29.92 in SSW 6.0 mph 14.0 mph 76 % 0.00 in
11:06 77.7 °F 69.1 °F 29.92 in SSE 4.0 mph 14.0 mph 75 % 0.00 in
11:11 78.1 °F 69.1 °F 29.92 in SE 7.0 mph 12.0 mph 74 % 0.00 in
11:16 78.1 °F 69.1 °F 29.92 in South 5.0 mph 12.0 mph 74 % 0.00 in
11:22 78.3 °F 68.9 °F 29.92 in SE 7.0 mph 18.0 mph 73 % 0.00 in
11:27 78.4 °F 69.1 °F 29.92 in South 5.0 mph 18.0 mph 73 % 0.00 in
11:32 78.6 °F 69.6 °F 29.92 in South 2.0 mph 18.0 mph 74 % 0.00 in
11:37 79.2 °F 68.9 °F 29.92 in SE 5.0 mph 13.0 mph 71 % 0.00 in
11:42 79.3 °F 68.7 °F 29.91 in South 9.0 mph 10.0 mph 70 % 0.00 in
11:47 79.7 °F 68.5 °F 29.91 in SSE 5.0 mph 14.0 mph 69 % 0.00 in
11:52 79.5 °F 68.5 °F 29.91 in SSE 4.0 mph 14.0 mph 69 % 0.00 in
11:57 79.5 °F 68.5 °F 29.91 in ESE 8.0 mph 14.0 mph 69 % 0.00 in
12:02 79.9 °F 68.7 °F 29.91 in SE 8.0 mph 13.0 mph 69 % 0.00 in
12:07 80.1 °F 68.2 °F 29.91 in ESE 11.0 mph 13.0 mph 67 % 0.00 in
12:12 80.2 °F 68.4 °F 29.91 in SSW 8.0 mph 13.0 mph 67 % 0.00 in
12:17 80.6 °F 68.2 °F 29.90 in ESE 12.0 mph 13.0 mph 66 % 0.00 in
12:22 81.0 °F 68.5 °F 29.90 in ESE 12.0 mph 15.0 mph 66 % 0.00 in
12:27 81.1 °F 68.2 °F 29.90 in ESE 9.0 mph 15.0 mph 65 % 0.00 in
12:32 81.0 °F 68.0 °F 29.90 in SSE 6.0 mph 16.0 mph 65 % 0.00 in
12:37 81.7 °F 68.4 °F 29.89 in SSE 6.0 mph 16.0 mph 64 % 0.00 in
12:42 81.9 °F 68.9 °F 29.89 in SW 5.0 mph 16.0 mph 65 % 0.00 in
12:47 81.9 °F 67.6 °F 29.89 in East 7.0 mph 15.0 mph 62 % 0.00 in
12:52 82.0 °F 67.3 °F 29.88 in SE 7.0 mph 15.0 mph 61 % 0.00 in
12:57 82.0 °F 67.3 °F 29.89 in South 3.0 mph 15.0 mph 61 % 0.00 in
13:02 82.2 °F 67.5 °F 29.89 in SSW 7.0 mph 17.0 mph 61 % 0.00 in
13:07 82.6 °F 68.2 °F 29.88 in SW 4.0 mph 17.0 mph 62 % 0.00 in
13:12 82.6 °F 67.3 °F 29.88 in SSW 5.0 mph 17.0 mph 60 % 0.00 in
13:17 82.6 °F 66.7 °F 29.88 in South 9.0 mph 14.0 mph 59 % 0.00 in
13:22 82.8 °F 66.9 °F 29.87 in South 5.0 mph 16.0 mph 59 % 0.00 in
13:27 82.9 °F 67.6 °F 29.87 in SE 4.0 mph 16.0 mph 60 % 0.00 in
13:32 83.1 °F 67.3 °F 29.87 in ESE 12.0 mph 16.0 mph 59 % 0.00 in
13:37 83.7 °F 67.3 °F 29.87 in SE 9.0 mph 14.0 mph 58 % 0.00 in
13:42 83.7 °F 67.3 °F 29.87 in SSE 10.0 mph 14.0 mph 58 % 0.00 in
13:47 83.3 °F 66.6 °F 29.86 in SSE 5.0 mph 14.0 mph 57 % 0.00 in
13:52 83.7 °F 67.8 °F 29.86 in East 6.0 mph 14.0 mph 59 % 0.00 in
13:57 84.0 °F 66.2 °F 29.86 in South 9.0 mph 14.0 mph 55 % 0.00 in
14:02 84.2 °F 65.7 °F 29.86 in SSE 9.0 mph 14.0 mph 54 % 0.00 in
14:08 83.8 °F 66.0 °F 29.86 in SE 5.0 mph 16.0 mph 55 % 0.00 in
14:13 83.7 °F 66.7 °F 29.85 in SSE 11.0 mph 16.0 mph 57 % 0.00 in
14:18 83.5 °F 66.6 °F 29.85 in East 5.0 mph 16.0 mph 57 % 0.00 in
14:23 83.5 °F 65.7 °F 29.85 in ESE 9.0 mph 15.0 mph 55 % 0.00 in
14:28 83.8 °F 64.9 °F 29.85 in SE 10.0 mph 15.0 mph 53 % 0.00 in
14:33 84.0 °F 65.1 °F 29.84 in SSE 10.0 mph 15.0 mph 53 % 0.00 in
14:38 84.6 °F 63.9 °F 29.84 in SSE 11.0 mph 15.0 mph 50 % 0.00 in
14:43 84.9 °F 65.3 °F 29.84 in ESE 6.0 mph 16.0 mph 52 % 0.00 in
14:48 85.3 °F 63.3 °F 29.83 in SSW 7.0 mph 16.0 mph 48 % 0.00 in
14:53 85.3 °F 62.8 °F 29.83 in SE 9.0 mph 19.0 mph 47 % 0.00 in
14:58 85.5 °F 64.0 °F 29.83 in ESE 5.0 mph 19.0 mph 49 % 0.00 in
15:03 85.8 °F 64.4 °F 29.83 in SSE 5.0 mph 19.0 mph 49 % 0.00 in
15:08 86.0 °F 64.0 °F 29.83 in SE 10.0 mph 15.0 mph 48 % 0.00 in
15:13 85.6 °F 62.4 °F 29.83 in SE 7.0 mph 14.0 mph 46 % 0.00 in
15:18 85.8 °F 63.3 °F 29.83 in SSE 6.0 mph 14.0 mph 47 % 0.00 in
15:23 85.6 °F 61.9 °F 29.83 in SSE 7.0 mph 17.0 mph 45 % 0.00 in
15:28 85.3 °F 62.2 °F 29.83 in South 5.0 mph 17.0 mph 46 % 0.00 in
15:33 85.5 °F 64.8 °F 29.83 in SSE 5.0 mph 18.0 mph 50 % 0.00 in
15:38 85.5 °F 65.3 °F 29.83 in SE 10.0 mph 18.0 mph 51 % 0.00 in
15:43 84.9 °F 65.3 °F 29.83 in SE 5.0 mph 18.0 mph 52 % 0.00 in
15:48 84.7 °F 66.2 °F 29.83 in SSE 11.0 mph 16.0 mph 54 % 0.00 in
15:53 84.2 °F 66.2 °F 29.83 in SSE 10.0 mph 16.0 mph 55 % 0.00 in
15:58 83.8 °F 66.0 °F 29.83 in NE 8.0 mph 16.0 mph 55 % 0.00 in
16:03 83.5 °F 66.6 °F 29.83 in SSW 9.0 mph 19.0 mph 57 % 0.00 in
16:08 83.3 °F 66.0 °F 29.83 in SSE 7.0 mph 20.0 mph 56 % 0.00 in
16:13 82.9 °F 66.6 °F 29.83 in ESE 9.0 mph 20.0 mph 58 % 0.00 in
16:18 83.1 °F 66.7 °F 29.83 in ESE 11.0 mph 20.0 mph 58 % 0.00 in
16:23 82.6 °F 66.4 °F 29.83 in South 5.0 mph 25.0 mph 58 % 0.00 in
16:28 82.6 °F 66.7 °F 29.83 in SSE 14.0 mph 25.0 mph 59 % 0.00 in
16:33 82.8 °F 66.9 °F 29.83 in SSE 8.0 mph 25.0 mph 59 % 0.00 in
16:38 82.8 °F 66.9 °F 29.83 in SSE 8.0 mph 18.0 mph 59 % 0.00 in
16:43 82.6 °F 66.7 °F 29.83 in East 8.0 mph 16.0 mph 59 % 0.00 in
16:48 82.6 °F 66.4 °F 29.83 in SSE 7.0 mph 17.0 mph 58 % 0.00 in
16:53 82.4 °F 66.2 °F 29.83 in SSE 11.0 mph 18.0 mph 58 % 0.00 in
16:58 82.6 °F 65.8 °F 29.83 in SSE 13.0 mph 18.0 mph 57 % 0.00 in
17:03 81.9 °F 66.2 °F 29.83 in SE 11.0 mph 19.0 mph 59 % 0.00 in
17:08 81.3 °F 66.0 °F 29.83 in SSW 11.0 mph 19.0 mph 60 % 0.00 in
17:13 81.3 °F 66.0 °F 29.82 in South 7.0 mph 19.0 mph 60 % 0.00 in
17:18 81.7 °F 66.0 °F 29.82 in South 12.0 mph 16.0 mph 59 % 0.00 in
17:23 81.3 °F 66.0 °F 29.82 in SE 6.0 mph 16.0 mph 60 % 0.00 in
17:28 81.3 °F 66.6 °F 29.81 in East 7.0 mph 16.0 mph 61 % 0.00 in
17:33 81.3 °F 66.6 °F 29.82 in SSE 10.0 mph 17.0 mph 61 % 0.00 in
17:38 81.3 °F 66.6 °F 29.82 in SE 8.0 mph 20.0 mph 61 % 0.00 in
17:43 80.8 °F 66.9 °F 29.81 in ESE 5.0 mph 20.0 mph 63 % 0.00 in
17:48 80.6 °F 67.3 °F 29.81 in SE 7.0 mph 20.0 mph 64 % 0.00 in
17:53 80.4 °F 67.1 °F 29.81 in South 6.0 mph 17.0 mph 64 % 0.00 in
17:58 80.1 °F 66.7 °F 29.81 in SSE 7.0 mph 15.0 mph 64 % 0.00 in
18:03 79.9 °F 67.1 °F 29.81 in SE 12.0 mph 14.0 mph 65 % 0.00 in
18:08 79.7 °F 66.9 °F 29.81 in ESE 11.0 mph 17.0 mph 65 % 0.00 in
18:13 79.5 °F 67.1 °F 29.82 in SSE 4.0 mph 18.0 mph 66 % 0.00 in
18:18 79.3 °F 67.5 °F 29.82 in SE 4.0 mph 18.0 mph 67 % 0.00 in
18:23 79.2 °F 67.3 °F 29.82 in ESE 9.0 mph 18.0 mph 67 % 0.00 in
18:28 79.2 °F 67.3 °F 29.82 in ESE 10.0 mph 16.0 mph 67 % 0.00 in
18:33 79.2 °F 67.6 °F 29.82 in East 8.0 mph 16.0 mph 68 % 0.00 in
18:38 79.2 °F 68.2 °F 29.82 in SE 2.0 mph 16.0 mph 69 % 0.00 in
18:44 79.0 °F 68.4 °F 29.82 in SE 8.0 mph 14.0 mph 70 % 0.00 in
18:49 78.4 °F 68.2 °F 29.83 in ESE 7.0 mph 16.0 mph 71 % 0.00 in
18:54 78.1 °F 68.4 °F 29.83 in SSE 5.0 mph 17.0 mph 72 % 0.00 in
18:59 77.7 °F 68.0 °F 29.83 in SSE 6.0 mph 17.0 mph 72 % 0.00 in
19:04 77.7 °F 68.0 °F 29.83 in SE 7.0 mph 17.0 mph 72 % 0.00 in
19:09 77.5 °F 67.8 °F 29.83 in SSE 5.0 mph 14.0 mph 72 % 0.00 in
19:14 77.4 °F 67.6 °F 29.82 in SSE 3.0 mph 15.0 mph 72 % 0.00 in
19:19 77.2 °F 67.8 °F 29.82 in SSE 8.0 mph 15.0 mph 73 % 0.00 in
19:24 76.8 °F 67.5 °F 29.83 in South 5.0 mph 15.0 mph 73 % 0.00 in
19:29 76.6 °F 67.3 °F 29.83 in SSE 7.0 mph 12.0 mph 73 % 0.00 in
19:34 76.6 °F 67.3 °F 29.83 in SE 5.0 mph 17.0 mph 73 % 0.00 in
19:39 76.5 °F 67.6 °F 29.83 in SE 7.0 mph 17.0 mph 74 % 0.00 in
19:44 76.5 °F 67.6 °F 29.83 in SE 5.0 mph 17.0 mph 74 % 0.00 in
19:49 76.3 °F 67.8 °F 29.83 in ESE 10.0 mph 14.0 mph 75 % 0.00 in
19:54 76.3 °F 67.8 °F 29.83 in SSE 6.0 mph 14.0 mph 75 % 0.00 in
19:59 75.9 °F 67.5 °F 29.83 in SSW 7.0 mph 14.0 mph 75 % 0.00 in
20:04 75.7 °F 67.6 °F 29.83 in SE 15.0 mph 17.0 mph 76 % 0.00 in
20:09 75.7 °F 67.6 °F 29.83 in SE 11.0 mph 17.0 mph 76 % 0.00 in
20:14 75.6 °F 67.5 °F 29.83 in SE 10.0 mph 17.0 mph 76 % 0.00 in
20:19 75.4 °F 67.6 °F 29.83 in ESE 9.0 mph 16.0 mph 77 % 0.00 in
20:24 75.4 °F 67.6 °F 29.84 in SE 4.0 mph 14.0 mph 77 % 0.00 in
20:29 75.2 °F 67.8 °F 29.83 in ESE 4.0 mph 13.0 mph 78 % 0.00 in
20:34 75.0 °F 67.6 °F 29.84 in SSE 3.0 mph 11.0 mph 78 % 0.00 in
20:39 74.8 °F 67.8 °F 29.84 in SSE 7.0 mph 11.0 mph 79 % 0.00 in
20:44 74.8 °F 67.8 °F 29.84 in South 7.0 mph 11.0 mph 79 % 0.00 in
20:49 74.7 °F 68.0 °F 29.84 in ESE 8.0 mph 12.0 mph 80 % 0.00 in
20:54 74.5 °F 67.8 °F 29.83 in SE 4.0 mph 16.0 mph 80 % 0.00 in
20:59 74.5 °F 67.8 °F 29.83 in SSE 7.0 mph 16.0 mph 80 % 0.00 in
21:04 74.1 °F 67.6 °F 29.83 in SSE 6.0 mph 16.0 mph 80 % 0.00 in
21:09 74.1 °F 67.6 °F 29.83 in SSE 4.0 mph 14.0 mph 80 % 0.00 in
21:14 73.9 °F 67.8 °F 29.83 in SE 4.0 mph 13.0 mph 81 % 0.00 in
21:19 73.9 °F 67.8 °F 29.83 in SE 5.0 mph 13.0 mph 81 % 0.00 in
21:24 73.8 °F 67.6 °F 29.83 in SSE 3.0 mph 13.0 mph 81 % 0.00 in
21:29 73.6 °F 67.8 °F 29.82 in SSE 3.0 mph 12.0 mph 82 % 0.00 in
21:34 73.4 °F 67.6 °F 29.82 in South 6.0 mph 12.0 mph 82 % 0.00 in
21:39 73.2 °F 67.5 °F 29.82 in ESE 5.0 mph 15.0 mph 82 % 0.00 in
21:44 73.2 °F 67.5 °F 29.82 in SE 7.0 mph 15.0 mph 82 % 0.00 in
21:49 73.0 °F 67.6 °F 29.82 in SE 4.0 mph 15.0 mph 83 % 0.00 in
21:54 73.0 °F 67.6 °F 29.82 in SW 5.0 mph 12.0 mph 83 % 0.00 in
21:59 72.9 °F 67.8 °F 29.83 in SSE 4.0 mph 12.0 mph 84 % 0.00 in
22:04 72.7 °F 67.8 °F 29.83 in SSE 5.0 mph 10.0 mph 85 % 0.00 in
22:09 72.7 °F 67.8 °F 29.85 in South 4.0 mph 10.0 mph 85 % 0.00 in
22:14 72.7 °F 68.2 °F 29.86 in South 5.0 mph 12.0 mph 86 % 0.00 in
22:19 72.7 °F 68.2 °F 29.86 in SSE 4.0 mph 12.0 mph 86 % 0.00 in
22:24 72.7 °F 68.2 °F 29.87 in SSW 1.0 mph 12.0 mph 86 % 0.00 in
22:29 72.7 °F 68.2 °F 29.88 in South 2.0 mph 9.0 mph 86 % 0.00 in
22:35 72.7 °F 68.2 °F 29.88 in SSE 2.0 mph 9.0 mph 86 % 0.00 in
22:37 72.7 °F 68.2 °F 29.88 in SSW 6.0 mph 7.0 mph 86 % 0.00 in
22:42 72.7 °F 68.5 °F 29.88 in SE 4.0 mph 11.0 mph 87 % 0.00 in
22:47 72.7 °F 68.5 °F 29.88 in SSE 2.0 mph 11.0 mph 87 % 0.00 in
22:52 72.7 °F 68.5 °F 29.88 in SE 2.0 mph 11.0 mph 87 % 0.00 in
22:57 72.7 °F 68.5 °F 29.88 in South 3.0 mph 8.0 mph 87 % 0.00 in
23:03 72.7 °F 68.5 °F 29.89 in SE 4.0 mph 8.0 mph 87 % 0.00 in
23:08 72.7 °F 68.5 °F 29.89 in SSE 3.0 mph 8.0 mph 87 % 0.00 in
23:13 72.7 °F 68.5 °F 29.88 in South 6.0 mph 7.0 mph 87 % 0.00 in
23:18 72.7 °F 68.5 °F 29.88 in SSE 5.0 mph 7.0 mph 87 % 0.00 in
23:23 72.7 °F 68.5 °F 29.89 in SE 3.0 mph 7.0 mph 87 % 0.00 in
23:28 72.7 °F 68.5 °F 29.88 in South 2.0 mph 7.0 mph 87 % 0.00 in
23:33 72.7 °F 68.5 °F 29.88 in SE 3.0 mph 7.0 mph 87 % 0.00 in
23:38 72.7 °F 68.5 °F 29.89 in SE 3.0 mph 8.0 mph 87 % 0.00 in
23:43 72.7 °F 68.5 °F 29.89 in SE 1.0 mph 8.0 mph 87 % 0.00 in
23:48 72.5 °F 68.4 °F 29.88 in SE 1.0 mph 8.0 mph 87 % 0.00 in
23:53 72.3 °F 68.2 °F 29.88 in SE 4.0 mph 7.0 mph 87 % 0.00 in
23:58 72.3 °F 68.2 °F 29.88 in SE 3.0 mph 6.0 mph 87 % 0.00 in
Spring, Texas: Villages of Bridgestone
Compliments of Weather Underground - 2.75 mb

Script developed by  Jim McMurry - jmcmurry@mwt.net Adapted for the template by  Wim van der Kuil - Leuven-Template.eu

You find our weather info also at:

UK Metoffice

WeatherCloud

Weather Underground

Mid-South Weather Network

AWEKAS

Citizen Weather Observer Program (CWOP)

HAMweather, WeatherForYou, PWS Weather

Equipment we use:

Weather-station
Davis Vantage Vue

Weather-program
Meteohub

Weather-server
Debian 7.9 x86 (Guest)

Provider
DreamHost

Davis Vantage Vue

Meteohub

Debian 7.9 x86 (Guest)

DreamHost